createdAt,value
2018-06-04T00:02:19.024Z,4.37
2018-06-04T00:04:51.518Z,4.30
2018-06-04T00:07:25.641Z,6.23
2018-06-04T00:09:59.670Z,6.07
2018-06-04T00:12:34.303Z,4.83
2018-06-04T00:15:08.215Z,5.63
2018-06-04T00:17:42.572Z,4.77
2018-06-04T00:20:14.848Z,5.30
2018-06-04T00:22:49.327Z,7.03
2018-06-04T00:25:25.180Z,3.70
2018-06-04T00:28:00.200Z,4.30
2018-06-04T00:30:35.797Z,4.97
2018-06-04T00:33:11.360Z,7.22
2018-06-04T00:35:48.498Z,5.07
2018-06-04T00:38:25.533Z,4.37
2018-06-04T00:41:00.685Z,3.90
2018-06-04T00:43:51.661Z,4.53
2018-06-04T00:46:26.143Z,4.20
2018-06-04T00:48:58.481Z,5.73
2018-06-04T00:51:32.948Z,6.20
2018-06-04T00:54:07.280Z,6.57
2018-06-04T00:56:39.843Z,9.18
2018-06-04T00:59:13.955Z,5.47
2018-06-04T01:01:48.088Z,4.83
2018-06-04T01:04:22.311Z,4.77
2018-06-04T01:06:56.941Z,5.57
2018-06-04T01:09:32.133Z,4.77
2018-06-04T01:12:08.400Z,4.03
2018-06-04T01:14:49.242Z,2.57
2018-06-04T01:17:23.086Z,1.87
2018-06-04T01:19:57.867Z,2.13
2018-06-04T01:22:31.620Z,2.73
2018-06-04T01:25:06.936Z,1.87
2018-06-04T01:27:41.075Z,1.90
2018-06-04T01:30:16.082Z,1.45
2018-06-04T01:32:50.441Z,3.23
2018-06-04T01:35:29.043Z,1.57
2018-06-04T01:38:03.629Z,2.13
2018-06-04T01:51:41.530Z,1.80
2018-06-04T01:54:15.459Z,2.03
2018-06-04T01:56:49.146Z,2.10
2018-06-04T01:59:23.065Z,1.43
2018-06-04T02:01:56.584Z,2.00
2018-06-04T02:04:31.209Z,0.77
2018-06-04T02:07:26.728Z,0.83
2018-06-04T02:10:00.702Z,2.50
2018-06-04T02:12:35.131Z,1.32
2018-06-04T02:15:11.711Z,1.70
2018-06-04T02:17:46.208Z,0.97
2018-06-04T02:20:20.074Z,1.00
2018-06-04T02:22:53.748Z,2.07
2018-06-04T02:25:28.031Z,1.70
2018-06-04T02:28:02.733Z,4.03
2018-06-04T02:30:36.463Z,1.73
2018-06-04T02:33:11.822Z,1.13
2018-06-04T02:35:45.814Z,1.20
2018-06-04T02:38:19.650Z,2.23
2018-06-04T02:40:53.842Z,2.30
2018-06-04T02:43:29.106Z,3.03
2018-06-04T02:46:03.058Z,1.20
2018-06-04T02:48:37.783Z,2.80
2018-06-04T02:51:12.095Z,1.47
2018-06-04T02:53:47.408Z,1.23
2018-06-04T02:56:23.473Z,1.60
2018-06-04T02:58:57.733Z,1.27
2018-06-04T03:01:32.051Z,2.13
2018-06-04T03:04:06.278Z,3.10
2018-06-04T03:06:40.301Z,1.33
2018-06-04T03:09:14.653Z,0.93
2018-06-04T03:11:49.026Z,1.27
2018-06-04T03:14:21.436Z,0.70
2018-06-04T03:16:55.755Z,2.53
2018-06-04T03:19:29.825Z,2.23
2018-06-04T03:22:03.656Z,3.40
2018-06-04T03:24:38.400Z,0.77
2018-06-04T03:27:12.530Z,1.15
2018-06-04T03:29:47.331Z,2.67
2018-06-04T03:32:22.777Z,2.15
2018-06-04T03:34:55.473Z,2.15
2018-06-04T03:37:28.367Z,1.73
2018-06-04T03:40:02.760Z,1.00
2018-06-04T03:42:37.429Z,2.67
2018-06-04T03:45:11.866Z,1.27
2018-06-04T03:47:46.327Z,1.63
2018-06-04T03:50:20.387Z,1.35
2018-06-04T03:52:54.689Z,1.37
2018-06-04T03:55:30.248Z,0.98
2018-06-04T03:58:04.770Z,2.13
2018-06-04T04:00:39.080Z,0.80
2018-06-04T04:03:12.999Z,1.70
2018-06-04T04:05:47.041Z,1.55
2018-06-04T04:08:20.988Z,0.77
2018-06-04T04:10:55.779Z,1.37
2018-06-04T04:13:28.335Z,2.27
2018-06-04T04:16:02.919Z,10.35
2018-06-04T04:18:36.890Z,1.30
2018-06-04T04:24:13.649Z,1.65
2018-06-04T04:26:47.498Z,0.97
2018-06-04T04:29:21.567Z,2.50
2018-06-04T04:31:55.690Z,0.80
2018-06-04T04:34:29.764Z,1.05
2018-06-04T04:37:04.367Z,0.80
2018-06-04T04:39:38.227Z,1.37
2018-06-04T04:42:12.204Z,1.15
2018-06-04T04:44:46.623Z,1.00
2018-06-04T04:47:21.357Z,1.20
2018-06-04T04:49:55.932Z,1.65
2018-06-04T04:52:30.275Z,1.67
2018-06-04T04:55:04.218Z,1.50
2018-06-04T04:57:39.574Z,2.20
2018-06-04T05:00:14.133Z,5.00
2018-06-04T05:02:48.579Z,1.53
2018-06-04T05:05:23.437Z,1.00
2018-06-04T05:07:57.720Z,1.00
2018-06-04T05:10:31.726Z,0.87
2018-06-04T05:13:05.858Z,1.97
2018-06-04T05:15:40.216Z,3.37
2018-06-04T05:18:14.517Z,3.33
2018-06-04T05:20:50.048Z,3.80
2018-06-04T05:23:24.280Z,1.50
2018-06-04T05:25:58.558Z,0.80
2018-06-04T05:28:33.447Z,1.25
2018-06-04T05:31:07.441Z,1.60
2018-06-04T05:33:42.363Z,2.30
2018-06-04T05:36:16.957Z,1.40
2018-06-04T05:38:51.123Z,1.90
2018-06-04T05:41:26.051Z,2.20
2018-06-04T05:44:00.375Z,1.57
2018-06-04T05:46:34.687Z,2.90
2018-06-04T05:49:10.111Z,1.47
2018-06-04T05:51:44.232Z,1.00
2018-06-04T05:54:18.627Z,1.10
2018-06-04T05:56:53.082Z,1.43
2018-06-04T05:59:27.951Z,1.27
2018-06-04T06:02:02.487Z,2.27
2018-06-04T06:04:36.522Z,1.80
2018-06-04T06:07:10.395Z,1.57
2018-06-04T06:09:45.081Z,3.30
2018-06-04T06:12:19.340Z,2.47
2018-06-04T06:14:53.569Z,2.00
2018-06-04T06:17:26.303Z,1.20
2018-06-04T06:20:00.830Z,1.63
2018-06-04T06:22:35.624Z,1.32
2018-06-04T06:25:09.987Z,1.67
2018-06-04T06:27:44.182Z,0.93
2018-06-04T06:30:18.329Z,2.97
2018-06-04T06:32:52.467Z,1.93
2018-06-04T06:35:25.313Z,1.80
2018-06-04T06:37:59.480Z,2.23
2018-06-04T06:40:33.737Z,0.83
2018-06-04T06:43:08.497Z,2.13
2018-06-04T06:45:42.963Z,3.23
2018-06-04T06:48:17.245Z,1.87
2018-06-04T06:50:51.509Z,2.53
2018-06-04T06:53:25.745Z,1.97
2018-06-04T06:56:31.126Z,4.97
2018-06-04T06:59:05.627Z,5.47
2018-06-04T07:01:40.876Z,3.13
2018-06-04T07:04:13.518Z,3.77
2018-06-04T07:06:47.618Z,2.00
2018-06-04T07:09:22.150Z,1.77
2018-06-04T07:11:56.424Z,2.77
2018-06-04T07:14:30.540Z,4.60
2018-06-04T07:17:04.211Z,5.77
2018-06-04T07:19:38.982Z,2.53
2018-06-04T07:22:13.028Z,5.33
2018-06-04T07:24:46.964Z,6.73
2018-06-04T07:27:22.519Z,4.10
2018-06-04T07:29:56.516Z,3.43
2018-06-04T07:32:30.859Z,2.00
2018-06-04T07:35:04.745Z,1.92
2018-06-04T07:37:39.101Z,1.87
2018-06-04T07:40:13.166Z,2.23
2018-06-04T07:42:47.169Z,3.83
2018-06-04T07:45:22.214Z,3.63
2018-06-04T07:47:56.784Z,3.43
2018-06-04T07:50:31.307Z,2.83
2018-06-04T07:53:06.044Z,1.90
2018-06-04T07:55:39.863Z,2.80
2018-06-04T07:58:13.793Z,3.23
2018-06-04T08:00:48.338Z,4.33
2018-06-04T08:03:23.228Z,2.75
2018-06-04T08:05:57.739Z,5.00
2018-06-04T08:08:31.954Z,3.43
2018-06-04T08:11:06.437Z,7.57
2018-06-04T08:13:41.820Z,5.07
2018-06-04T08:16:15.905Z,3.50
2018-06-04T08:18:49.731Z,2.83
2018-06-04T08:21:23.788Z,2.37
2018-06-04T08:23:58.310Z,2.53
2018-06-04T08:26:32.510Z,2.23
2018-06-04T08:29:07.028Z,2.17
2018-06-04T08:31:41.124Z,2.07
2018-06-04T08:34:16.347Z,2.83
2018-06-04T08:36:50.673Z,2.77
2018-06-04T08:39:25.046Z,2.93
2018-06-04T08:41:59.183Z,2.90
2018-06-04T08:44:33.342Z,1.57
2018-06-04T08:47:07.381Z,1.20
2018-06-04T08:49:41.596Z,1.87
2018-06-04T08:52:15.853Z,2.40
2018-06-04T08:54:48.379Z,1.30
2018-06-04T08:57:22.410Z,0.87
2018-06-04T08:59:56.776Z,2.57
2018-06-04T09:02:31.410Z,2.20
2018-06-04T09:05:05.122Z,1.53
2018-06-04T09:07:39.840Z,1.00
2018-06-04T09:10:14.954Z,1.40
2018-06-04T09:12:47.825Z,1.00
2018-06-04T09:15:21.713Z,1.80
2018-06-04T09:17:55.919Z,1.33
2018-06-04T09:20:29.822Z,1.40
2018-06-04T09:23:04.102Z,2.23
2018-06-04T09:25:38.953Z,1.60
2018-06-04T09:28:13.023Z,1.70
2018-06-04T09:30:47.233Z,1.33
2018-06-04T09:33:21.478Z,1.30
2018-06-04T09:35:55.489Z,3.83
2018-06-04T09:38:28.491Z,1.60
2018-06-04T09:41:02.503Z,1.70
2018-06-04T09:43:37.179Z,1.60
2018-06-04T09:46:11.650Z,1.20
2018-06-04T09:48:44.241Z,1.57
2018-06-04T09:51:23.863Z,2.13
2018-06-04T09:53:56.449Z,1.97
2018-06-04T09:56:32.369Z,1.20
2018-06-04T09:59:07.435Z,1.70
2018-06-04T10:01:41.563Z,1.53
2018-06-04T10:04:16.443Z,1.62
2018-06-04T10:06:51.360Z,2.20
2018-06-04T10:09:26.363Z,1.10
2018-06-04T10:12:01.249Z,1.77
2018-06-04T10:14:33.816Z,2.43
2018-06-04T10:17:07.827Z,3.67
2018-06-04T10:19:41.847Z,3.70
2018-06-04T10:22:16.019Z,3.27
2018-06-04T10:24:50.294Z,1.93
2018-06-04T10:27:24.314Z,5.13
2018-06-04T10:29:58.312Z,1.97
2018-06-04T10:32:32.304Z,2.57
2018-06-04T10:35:06.210Z,2.85
2018-06-04T10:37:41.253Z,1.40
2018-06-04T10:40:15.858Z,2.17
2018-06-04T10:42:50.789Z,1.57
2018-06-04T10:45:25.201Z,0.80
2018-06-04T10:47:59.577Z,1.80
2018-06-04T10:50:33.387Z,3.10
2018-06-04T10:53:07.779Z,3.03
2018-06-04T10:55:41.998Z,3.73
2018-06-04T10:58:16.381Z,1.83
2018-06-04T11:00:50.480Z,2.33
2018-06-04T11:03:58.262Z,2.57
2018-06-04T11:06:32.436Z,2.57
2018-06-04T11:09:10.749Z,3.23
2018-06-04T11:11:46.423Z,2.33
2018-06-04T11:14:21.139Z,1.67
2018-06-04T11:16:55.229Z,2.07
2018-06-04T11:19:31.948Z,2.57
2018-06-04T11:22:06.451Z,4.23
2018-06-04T11:24:40.679Z,5.03
2018-06-04T11:27:15.189Z,3.53
2018-06-04T11:29:49.529Z,5.00
2018-06-04T11:32:23.656Z,2.83
2018-06-04T11:34:58.434Z,2.60
2018-06-04T11:37:32.642Z,2.42
2018-06-04T11:40:04.962Z,3.20
2018-06-04T11:42:39.778Z,2.40
2018-06-04T11:45:14.027Z,3.07
2018-06-04T11:47:48.127Z,2.67
2018-06-04T11:50:23.157Z,4.10
2018-06-04T11:52:57.708Z,3.33
2018-06-04T11:55:32.504Z,3.00
2018-06-04T11:58:06.760Z,3.50
2018-06-04T12:00:41.147Z,3.83
2018-06-04T12:03:17.740Z,3.50
2018-06-04T12:05:52.218Z,5.27
2018-06-04T12:08:26.358Z,3.47
2018-06-04T12:11:01.490Z,2.63
2018-06-04T12:13:35.492Z,3.73
2018-06-04T12:16:10.495Z,4.23
2018-06-04T12:18:45.027Z,5.27
2018-06-04T12:21:49.339Z,5.70
2018-06-04T12:24:24.127Z,4.87
2018-06-04T12:26:58.226Z,2.97
2018-06-04T12:29:32.382Z,3.90
2018-06-04T12:32:06.453Z,2.77
2018-06-04T12:34:40.535Z,3.50
2018-06-04T12:37:14.865Z,3.37
2018-06-04T12:39:48.982Z,2.97
2018-06-04T12:42:24.625Z,2.50
2018-06-04T12:44:58.756Z,2.62
2018-06-04T12:47:33.195Z,2.00
2018-06-04T12:50:07.241Z,3.07
2018-06-04T12:52:42.026Z,7.17
2018-06-04T12:55:16.175Z,3.30
2018-06-04T12:57:48.580Z,3.30
2018-06-04T13:00:23.009Z,4.33
2018-06-04T13:02:55.748Z,3.00
2018-06-04T13:05:29.658Z,3.30
2018-06-04T13:08:04.019Z,3.37
2018-06-04T13:10:39.138Z,3.30
2018-06-04T13:13:17.520Z,2.53
2018-06-04T13:15:52.261Z,2.37
2018-06-04T13:18:24.981Z,2.37
2018-06-04T13:20:58.663Z,2.87
2018-06-04T13:23:33.997Z,1.93
2018-06-04T13:26:09.674Z,2.07
2018-06-04T13:28:44.003Z,2.47
2018-06-04T13:31:17.729Z,3.67
2018-06-04T13:33:52.170Z,2.93
2018-06-04T13:36:26.872Z,1.40
2018-06-04T13:39:01.775Z,4.10
2018-06-04T13:41:35.930Z,2.27
2018-06-04T13:44:10.234Z,2.17
2018-06-04T13:46:44.328Z,3.00
2018-06-04T13:49:18.590Z,1.70
2018-06-04T13:51:52.673Z,2.20
2018-06-04T13:54:26.724Z,4.87
2018-06-04T13:56:59.596Z,1.10
2018-06-04T13:59:33.942Z,1.60
2018-06-04T14:02:08.099Z,2.27
2018-06-04T14:04:42.456Z,1.60
2018-06-04T14:07:16.435Z,1.90
2018-06-04T14:09:50.180Z,1.23
2018-06-04T14:12:24.021Z,2.00
2018-06-04T14:14:58.186Z,1.33
2018-06-04T14:17:32.200Z,2.57
2018-06-04T14:20:06.495Z,1.93
2018-06-04T14:22:40.501Z,1.23
2018-06-04T14:25:14.604Z,1.60
2018-06-04T14:27:48.379Z,2.77
2018-06-04T14:30:22.601Z,1.10
2018-06-04T14:32:55.181Z,1.13
2018-06-04T14:35:29.541Z,1.20
2018-06-04T14:38:03.691Z,1.07
2018-06-04T14:40:37.833Z,1.87
2018-06-04T14:43:11.827Z,1.00
2018-06-04T14:45:46.315Z,1.97
2018-06-04T14:48:21.345Z,2.07
2018-06-04T14:50:55.330Z,1.40
2018-06-04T14:53:29.398Z,2.30
2018-06-04T14:56:01.934Z,1.43
2018-06-04T14:58:37.214Z,1.50
2018-06-04T15:01:09.664Z,2.07
2018-06-04T15:03:43.687Z,1.47
2018-06-04T15:06:17.327Z,2.57
2018-06-04T15:08:51.837Z,1.40
2018-06-04T15:11:25.954Z,2.07
2018-06-04T15:13:58.338Z,1.27
2018-06-04T15:16:33.662Z,0.80
2018-06-04T15:19:07.595Z,1.23
2018-06-04T15:21:41.827Z,1.57
2018-06-04T15:24:15.728Z,1.33
2018-06-04T15:26:49.912Z,1.67
2018-06-04T15:29:24.255Z,1.53
2018-06-04T15:31:58.094Z,1.47
2018-06-04T15:34:32.610Z,1.80
2018-06-04T15:37:06.344Z,1.00
2018-06-04T15:39:40.461Z,1.07
2018-06-04T15:42:13.995Z,0.77
2018-06-04T15:44:46.406Z,1.20
2018-06-04T15:47:20.681Z,1.73
2018-06-04T15:49:53.192Z,1.17
2018-06-04T15:52:27.284Z,0.73
2018-06-04T15:54:59.615Z,0.93
2018-06-04T15:57:33.506Z,0.83
2018-06-04T16:00:07.934Z,0.82
2018-06-04T16:02:41.647Z,0.53
2018-06-04T16:05:15.628Z,0.73
2018-06-04T16:07:49.452Z,2.50
2018-06-04T16:10:23.393Z,1.60
2018-06-04T16:12:57.457Z,0.50
2018-06-04T16:15:31.265Z,1.30
2018-06-04T16:18:06.504Z,0.50
2018-06-04T16:20:40.652Z,1.53
2018-06-04T16:23:14.822Z,1.13
2018-06-04T16:25:49.089Z,1.33
2018-06-04T16:28:23.070Z,1.17
2018-06-04T16:30:56.987Z,1.50
2018-06-04T16:33:31.367Z,0.67
2018-06-04T16:36:05.455Z,0.83
2018-06-04T16:38:39.559Z,0.73
2018-06-04T16:41:13.548Z,1.60
2018-06-04T16:43:47.684Z,1.00
2018-06-04T16:46:21.584Z,1.90
2018-06-04T16:48:56.276Z,1.90
2018-06-04T16:51:30.152Z,2.27
2018-06-04T16:54:04.303Z,0.40
2018-06-04T16:56:38.679Z,1.17
2018-06-04T16:59:11.172Z,0.43
2018-06-04T17:01:43.290Z,0.77
2018-06-04T17:04:17.892Z,2.10
2018-06-04T17:06:52.002Z,1.53
2018-06-04T17:09:26.559Z,0.37
2018-06-04T17:12:00.603Z,2.33
2018-06-04T17:14:34.468Z,1.20
2018-06-04T17:17:09.576Z,2.17
2018-06-04T17:19:45.369Z,1.10
2018-06-04T17:22:19.625Z,2.37
2018-06-04T17:24:53.767Z,2.00
2018-06-04T17:27:27.777Z,3.30
2018-06-04T17:30:02.446Z,1.07
2018-06-04T17:32:36.240Z,0.93
2018-06-04T17:35:10.501Z,1.70
2018-06-04T17:37:42.670Z,2.53
2018-06-04T17:40:15.024Z,0.60
2018-06-04T17:42:49.175Z,0.73
2018-06-04T17:45:23.102Z,0.70
2018-06-04T17:47:57.259Z,0.67
2018-06-04T17:50:31.605Z,0.97
2018-06-04T17:53:05.884Z,0.50
2018-06-04T17:55:40.010Z,1.13
2018-06-04T17:58:14.251Z,1.10
2018-06-04T18:00:48.085Z,1.07
2018-06-04T18:03:22.693Z,1.27
2018-06-04T18:05:56.948Z,1.43
2018-06-04T18:08:31.118Z,1.23
2018-06-04T18:11:03.713Z,0.90
2018-06-04T18:13:37.748Z,1.10
2018-06-04T18:16:12.430Z,0.93
2018-06-04T18:18:46.340Z,2.00
2018-06-04T18:21:21.600Z,1.37
2018-06-04T18:23:55.916Z,1.77
2018-06-04T18:26:31.268Z,0.83
2018-06-04T18:29:06.037Z,1.00
2018-06-04T18:31:41.267Z,1.43
2018-06-04T18:34:15.645Z,0.82
2018-06-04T18:36:49.720Z,1.20
2018-06-04T18:39:22.127Z,1.70
2018-06-04T18:41:55.016Z,1.20
2018-06-04T18:44:29.264Z,1.03
2018-06-04T18:47:03.474Z,0.73
2018-06-04T18:49:37.693Z,1.23
2018-06-04T18:52:11.793Z,1.33
2018-06-04T18:54:45.958Z,0.73
2018-06-04T18:57:20.402Z,0.70
2018-06-04T18:59:54.702Z,1.17
2018-06-04T19:02:27.341Z,0.77
2018-06-04T19:05:01.980Z,0.50
2018-06-04T19:07:36.654Z,1.20
2018-06-04T19:10:10.605Z,1.30
2018-06-04T19:12:44.751Z,1.13
2018-06-04T19:15:17.341Z,0.77
2018-06-04T19:17:50.236Z,0.40
2018-06-04T19:20:25.457Z,0.93
2018-06-04T19:23:00.724Z,2.37
2018-06-04T19:25:35.203Z,0.53
2018-06-04T19:28:09.432Z,0.50
2018-06-04T19:30:43.451Z,0.70
2018-06-04T19:33:16.015Z,2.03
2018-06-04T19:35:50.235Z,0.43
2018-06-04T19:38:24.414Z,2.00
2018-06-04T19:40:58.489Z,0.70
2018-06-04T19:43:32.633Z,0.57
2018-06-04T19:46:06.844Z,1.20
2018-06-04T19:48:41.246Z,0.40
2018-06-04T19:51:15.529Z,0.97
2018-06-04T19:53:49.848Z,1.60
2018-06-04T19:56:23.829Z,0.77
2018-06-04T19:58:57.948Z,0.53
2018-06-04T20:01:32.131Z,0.50
2018-06-04T20:04:06.403Z,1.67
2018-06-04T20:06:40.907Z,0.87
2018-06-04T20:09:15.256Z,0.77
2018-06-04T20:11:49.535Z,0.93
2018-06-04T20:14:23.536Z,0.40
2018-06-04T20:16:57.810Z,0.97
2018-06-04T20:19:32.224Z,0.37
2018-06-04T20:22:06.153Z,0.43
2018-06-04T20:24:41.216Z,0.40
2018-06-04T20:27:15.532Z,0.30
2018-06-04T20:29:49.709Z,1.43
2018-06-04T20:32:24.223Z,0.77
2018-06-04T20:34:58.290Z,1.27
2018-06-04T20:37:32.474Z,0.43
2018-06-04T20:40:06.651Z,0.63
2018-06-04T20:42:41.047Z,1.00
2018-06-04T20:45:15.117Z,0.50
2018-06-04T20:47:48.915Z,0.70
2018-06-04T20:50:22.961Z,5.27
2018-06-04T20:52:57.211Z,1.70
2018-06-04T20:55:31.761Z,0.60
2018-06-04T20:58:05.871Z,0.77
2018-06-04T21:00:40.254Z,1.47
2018-06-04T21:03:14.294Z,0.97
2018-06-04T21:05:48.418Z,0.57
2018-06-04T21:08:22.596Z,1.10
2018-06-04T21:10:56.707Z,1.93
2018-06-04T21:13:31.612Z,0.83
2018-06-04T21:16:05.642Z,1.87
2018-06-04T21:18:39.788Z,0.57
2018-06-04T21:21:14.241Z,1.20
2018-06-04T21:23:48.112Z,0.70
2018-06-04T21:26:23.727Z,0.57
2018-06-04T21:28:57.840Z,0.67
2018-06-04T21:31:31.953Z,0.97
2018-06-04T21:34:06.546Z,1.70
2018-06-04T21:36:40.532Z,0.77
2018-06-04T21:39:14.520Z,0.70
2018-06-04T21:41:48.840Z,1.47
2018-06-04T21:44:23.144Z,0.87
2018-06-04T21:46:57.161Z,1.53
2018-06-04T21:49:31.537Z,2.77
2018-06-04T21:52:03.912Z,1.13
2018-06-04T21:54:39.123Z,1.30
2018-06-04T21:57:13.238Z,1.40
2018-06-04T21:59:47.388Z,1.17
2018-06-04T22:02:21.448Z,1.33
2018-06-04T22:04:55.989Z,0.83
2018-06-04T22:07:30.019Z,0.53
2018-06-04T22:10:04.530Z,1.07
2018-06-04T22:12:38.552Z,1.13
2018-06-04T22:15:10.945Z,2.43
2018-06-04T22:17:43.530Z,1.80
2018-06-04T22:20:17.509Z,1.83
2018-06-04T22:22:51.549Z,1.70
2018-06-04T22:25:25.716Z,1.53
2018-06-04T22:28:00.337Z,3.77
2018-06-04T22:30:34.620Z,2.63
2018-06-04T22:33:08.527Z,2.07
2018-06-04T22:35:42.665Z,2.83
2018-06-04T22:38:16.858Z,3.47
2018-06-04T22:40:51.928Z,2.77
2018-06-04T22:43:26.316Z,2.53
2018-06-04T22:46:00.322Z,3.37
2018-06-04T22:48:34.693Z,3.30
2018-06-04T22:51:09.034Z,3.00
2018-06-04T22:53:43.254Z,2.90
2018-06-04T22:56:16.782Z,3.30
2018-06-04T22:58:51.370Z,3.30
2018-06-04T23:01:25.799Z,1.93
2018-06-04T23:04:00.127Z,2.23
2018-06-04T23:06:34.184Z,3.03
2018-06-04T23:09:10.114Z,2.30
2018-06-04T23:11:44.306Z,1.43
2018-06-04T23:14:18.609Z,2.53
2018-06-04T23:16:53.007Z,1.50
2018-06-04T23:19:27.142Z,1.37
2018-06-04T23:22:01.281Z,2.27
2018-06-04T23:24:35.537Z,1.70
2018-06-04T23:27:09.730Z,1.53
2018-06-04T23:29:44.722Z,1.70
2018-06-04T23:32:18.918Z,1.53
2018-06-04T23:34:53.393Z,1.83
2018-06-04T23:37:27.392Z,2.87
2018-06-04T23:39:59.854Z,3.23
2018-06-04T23:42:32.485Z,2.10
2018-06-04T23:45:06.539Z,1.47
2018-06-04T23:47:41.014Z,2.33
2018-06-04T23:50:14.873Z,1.53
2018-06-04T23:52:48.630Z,2.67
2018-06-04T23:55:22.796Z,2.80
2018-06-04T23:57:57.046Z,1.67
